Time;durP1;ratioP1;P1;durP2;ratioP2;P2;SDS_P1;SDS_P2;PMS_P1;PMS_P2;Temp;Humidity;BMP_temperature;BMP_pressure;BME280_temperature;BME280_humidity;BME280_pressure;Samples;Min_cycle;Max_cycle;Signal;HPM_P1;HPM_P2
2021/07/16 00:00:30;;;;;;;14.95;5.50;;;18.60;99.90;;;;;;4137130;28;20038;-73
2021/07/16 00:02:30;;;;;;;18.00;5.80;;;18.50;99.90;;;;;;4136365;28;20559;-72
2021/07/16 00:04:31;;;;;;;14.25;5.85;;;18.50;99.90;;;;;;4140043;28;20046;-72
2021/07/16 00:06:32;;;;;;;8.82;4.60;;;18.50;99.90;;;;;;4132775;28;20520;-72
2021/07/16 00:08:32;;;;;;;12.50;5.00;;;18.50;99.90;;;;;;4131956;28;20099;-73
2021/07/16 00:10:33;;;;;;;9.65;4.95;;;18.50;99.90;;;;;;4139112;28;20038;-72
2021/07/16 00:12:34;;;;;;;19.65;5.68;;;18.50;99.90;;;;;;4132254;28;20117;-72
2021/07/16 00:14:35;;;;;;;17.75;5.75;;;18.50;99.90;;;;;;4135541;28;20068;-72
2021/07/16 00:16:36;;;;;;;13.68;5.15;;;18.50;99.90;;;;;;4132422;28;20038;-72
2021/07/16 00:18:36;;;;;;;12.52;5.47;;;18.50;99.90;;;;;;4133541;28;20063;-72
2021/07/16 00:20:37;;;;;;;15.82;6.20;;;18.50;99.90;;;;;;4139232;28;20034;-72
2021/07/16 00:22:38;;;;;;;18.67;5.47;;;18.40;99.90;;;;;;4133998;28;20414;-72
2021/07/16 00:24:39;;;;;;;13.45;5.60;;;18.40;99.90;;;;;;4134015;28;20065;-72
2021/07/16 00:26:39;;;;;;;11.75;5.57;;;18.40;99.90;;;;;;4141113;28;20100;-72
2021/07/16 00:28:40;;;;;;;20.35;6.28;;;18.30;99.90;;;;;;4133720;28;20414;-72
2021/07/16 00:30:41;;;;;;;11.50;5.13;;;18.30;99.90;;;;;;4118349;28;20125;-72
2021/07/16 00:32:42;;;;;;;13.35;5.60;;;18.30;99.90;;;;;;4135504;28;20034;-73
2021/07/16 00:34:42;;;;;;;11.27;5.53;;;18.40;99.90;;;;;;4135282;28;20042;-72
2021/07/16 00:36:43;;;;;;;10.98;4.95;;;18.30;99.90;;;;;;4136661;28;20034;-72
2021/07/16 00:38:44;;;;;;;11.98;4.72;;;18.30;99.90;;;;;;4135426;28;20413;-72
2021/07/16 00:40:45;;;;;;;13.45;4.93;;;18.40;99.90;;;;;;4130406;28;20061;-72
2021/07/16 00:42:46;;;;;;;18.27;5.78;;;18.30;99.90;;;;;;4137708;28;20049;-72
2021/07/16 00:44:48;;;;;;;19.05;5.80;;;18.30;99.90;;;;;;4136457;28;20022;-72
2021/07/16 00:46:49;;;;;;;11.10;5.00;;;18.30;99.90;;;;;;4139480;28;20627;-72
2021/07/16 00:48:49;;;;;;;14.13;5.53;;;18.30;99.90;;;;;;4137411;28;20050;-72
2021/07/16 00:50:52;;;;;;;17.27;5.53;;;18.30;99.90;;;;;;4140126;28;20437;-72
2021/07/16 00:52:57;;;;;;;18.02;5.72;;;18.30;99.90;;;;;;4132744;28;20048;-72
2021/07/16 00:54:58;;;;;;;14.00;6.10;;;18.30;99.90;;;;;;4137607;28;20042;-73
2021/07/16 00:56:58;;;;;;;14.43;5.50;;;18.20;99.90;;;;;;4140033;28;20049;-72
2021/07/16 00:58:59;;;;;;;15.02;5.10;;;18.20;99.90;;;;;;4136169;28;21128;-73
2021/07/16 01:01:01;;;;;;;14.07;5.63;;;18.20;99.90;;;;;;4131774;28;20125;-72
2021/07/16 01:03:03;;;;;;;9.98;5.40;;;18.20;99.90;;;;;;4131902;28;20031;-72
2021/07/16 01:05:09;;;;;;;12.10;5.07;;;18.20;99.90;;;;;;4130881;28;20037;-72
2021/07/16 01:07:09;;;;;;;14.02;5.50;;;18.20;99.90;;;;;;4135694;28;20035;-72
2021/07/16 01:09:10;;;;;;;11.98;4.88;;;18.20;99.90;;;;;;4135105;28;20069;-72
2021/07/16 01:11:11;;;;;;;18.77;5.82;;;18.20;99.90;;;;;;4138871;28;20041;-72
2021/07/16 01:13:15;;;;;;;14.68;6.00;;;18.20;99.90;;;;;;4139618;28;20112;-72
2021/07/16 01:15:15;;;;;;;13.65;5.90;;;18.20;99.90;;;;;;4142223;28;20030;-72
2021/07/16 01:17:17;;;;;;;11.90;5.45;;;18.20;99.90;;;;;;4142879;28;20088;-72
2021/07/16 01:19:34;;;;;;;13.32;5.60;;;18.10;99.90;;;;;;4138516;28;20034;-73
2021/07/16 01:21:37;;;;;;;15.95;5.97;;;18.10;99.90;;;;;;4133483;28;20459;-73
2021/07/16 01:23:37;;;;;;;;;;;18.10;99.90;;;;;;4140977;28;20545;-72
2021/07/16 01:25:38;;;;;;;16.00;6.05;;;18.10;99.90;;;;;;4139924;28;19956;-72
2021/07/16 01:27:41;;;;;;;13.90;5.57;;;18.10;99.90;;;;;;4131960;28;20109;-72
2021/07/16 01:29:42;;;;;;;15.45;6.13;;;18.00;99.90;;;;;;4137373;28;20037;-72
2021/07/16 01:31:42;;;;;;;16.75;5.47;;;18.00;99.90;;;;;;4123835;28;20046;-72
2021/07/16 01:33:43;;;;;;;11.23;5.03;;;18.00;99.90;;;;;;4139990;28;20428;-72
2021/07/16 01:35:44;;;;;;;13.18;5.10;;;18.00;99.90;;;;;;4136749;28;20120;-72
2021/07/16 01:37:45;;;;;;;11.75;5.13;;;18.00;99.90;;;;;;4140043;28;20131;-72
2021/07/16 01:39:46;;;;;;;11.70;4.90;;;18.00;99.90;;;;;;4138289;28;20042;-72
2021/07/16 01:41:46;;;;;;;12.60;5.25;;;18.00;99.90;;;;;;4140898;28;20042;-72
2021/07/16 01:43:48;;;;;;;17.45;5.82;;;18.00;99.90;;;;;;4141667;28;20113;-73
2021/07/16 01:45:49;;;;;;;16.08;5.45;;;17.90;99.90;;;;;;4122225;28;20030;-72
2021/07/16 01:47:58;;;;;;;12.02;5.05;;;17.90;99.90;;;;;;4126135;28;20773;-72
2021/07/16 01:50:00;;;;;;;10.10;4.50;;;17.90;99.90;;;;;;4135218;28;20046;-72
2021/07/16 01:52:01;;;;;;;;;;;18.00;99.90;;;;;;4137159;28;20026;-72
2021/07/16 01:54:02;;;;;;;10.88;4.68;;;17.90;99.90;;;;;;4136256;28;19952;-72
2021/07/16 01:56:03;;;;;;;15.82;5.38;;;17.90;99.90;;;;;;4137556;28;20038;-72
2021/07/16 01:58:08;;;;;;;16.30;4.60;;;17.90;99.90;;;;;;4137197;28;20060;-72
2021/07/16 02:00:11;;;;;;;16.63;5.43;;;17.80;99.90;;;;;;4136650;28;20052;-72
2021/07/16 02:02:12;;;;;;;12.75;5.28;;;17.80;99.90;;;;;;4138318;28;20050;-72
2021/07/16 02:04:12;;;;;;;15.73;5.32;;;17.80;99.90;;;;;;4124520;28;20035;-72
2021/07/16 02:06:14;;;;;;;15.70;5.43;;;17.80;99.90;;;;;;4134082;28;20045;-72
2021/07/16 02:08:20;;;;;;;13.52;5.03;;;17.80;99.90;;;;;;4133647;28;20490;-72
2021/07/16 02:10:22;;;;;;;11.30;4.88;;;17.80;99.90;;;;;;4136144;28;20025;-72
2021/07/16 02:12:23;;;;;;;12.65;5.22;;;17.80;99.90;;;;;;4136918;28;20042;-72
2021/07/16 02:14:25;;;;;;;9.70;4.93;;;17.80;99.90;;;;;;4135800;28;20030;-72
2021/07/16 02:16:25;;;;;;;10.43;4.53;;;17.80;99.90;;;;;;4138767;28;20056;-72
2021/07/16 02:18:26;;;;;;;12.27;5.28;;;17.70;99.90;;;;;;4133104;28;20266;-72
2021/07/16 02:20:28;;;;;;;12.10;4.65;;;17.80;99.90;;;;;;4135282;28;20074;-73
2021/07/16 02:22:28;;;;;;;15.70;4.97;;;17.70;99.90;;;;;;4138578;28;20093;-72
2021/07/16 02:24:29;;;;;;;17.50;4.50;;;17.80;99.90;;;;;;4133338;28;20038;-72
2021/07/16 02:26:30;;;;;;;20.20;5.93;;;17.80;99.90;;;;;;4137902;28;20111;-72
2021/07/16 02:28:32;;;;;;;8.80;4.13;;;17.80;99.90;;;;;;4141621;28;20522;-72
2021/07/16 02:30:32;;;;;;;11.80;4.90;;;17.70;99.90;;;;;;4138311;28;20165;-72
2021/07/16 02:32:33;;;;;;;17.67;4.80;;;17.70;99.90;;;;;;4134374;28;20034;-72
2021/07/16 02:34:34;;;;;;;12.77;4.43;;;17.70;99.90;;;;;;4140880;28;20549;-72
2021/07/16 02:36:34;;;;;;;15.20;4.70;;;17.70;99.90;;;;;;4138156;28;20108;-72
2021/07/16 02:38:35;;;;;;;14.20;4.40;;;17.70;99.90;;;;;;4138560;28;20553;-72
2021/07/16 02:40:36;;;;;;;13.32;4.93;;;17.80;99.90;;;;;;4141729;28;20648;-72
2021/07/16 02:42:37;;;;;;;10.13;4.47;;;17.70;99.90;;;;;;4140193;28;20080;-72
2021/07/16 02:44:38;;;;;;;8.60;4.50;;;17.70;99.90;;;;;;4137874;28;20477;-72
2021/07/16 02:46:38;;;;;;;10.63;4.18;;;17.80;99.90;;;;;;4137153;28;20038;-72
2021/07/16 02:48:42;;;;;;;13.40;5.10;;;17.80;99.90;;;;;;4140377;28;20117;-72
2021/07/16 02:50:45;;;;;;;10.93;4.68;;;17.70;99.90;;;;;;4119656;28;21666;-72
2021/07/16 02:52:45;;;;;;;9.10;4.07;;;17.70;99.90;;;;;;4139254;28;20482;-72
2021/07/16 02:54:46;;;;;;;13.35;4.68;;;17.70;99.90;;;;;;4140481;28;20040;-72
2021/07/16 02:56:46;;;;;;;19.33;5.28;;;17.80;99.90;;;;;;4135042;28;20044;-72
2021/07/16 02:58:47;;;;;;;11.15;4.85;;;17.70;99.90;;;;;;4138757;28;20497;-72
2021/07/16 03:00:48;;;;;;;10.88;4.65;;;17.70;99.90;;;;;;4137612;28;20045;-72
2021/07/16 03:02:50;;;;;;;12.73;4.95;;;17.60;99.90;;;;;;4137672;28;20058;-72
2021/07/16 03:04:51;;;;;;;;;;;17.70;99.90;;;;;;4137252;28;20037;-72
2021/07/16 03:06:52;;;;;;;11.43;5.00;;;17.60;99.90;;;;;;4138422;28;19945;-72
2021/07/16 03:08:53;;;;;;;21.60;6.00;;;17.60;99.90;;;;;;4140471;28;20030;-72
2021/07/16 03:10:54;;;;;;;19.50;5.55;;;17.60;99.90;;;;;;4137512;28;20111;-72
2021/07/16 03:12:56;;;;;;;15.43;5.30;;;17.60;99.90;;;;;;4131974;28;20706;-72
2021/07/16 03:14:57;;;;;;;10.13;4.50;;;17.50;99.90;;;;;;4141578;28;20022;-72
2021/07/16 03:16:58;;;;;;;13.57;5.50;;;17.60;99.90;;;;;;4135894;28;20441;-72
2021/07/16 03:19:03;;;;;;;10.90;4.80;;;17.50;99.90;;;;;;4135641;28;20092;-72
2021/07/16 03:21:04;;;;;;;14.43;5.40;;;17.50;99.90;;;;;;4130786;28;20049;-72
2021/07/16 03:23:05;;;;;;;13.40;5.60;;;17.50;99.90;;;;;;4132546;28;20498;-72
2021/07/16 03:25:09;;;;;;;11.23;4.80;;;17.50;99.90;;;;;;4138953;28;20045;-72
2021/07/16 03:27:09;;;;;;;14.63;5.50;;;17.60;99.90;;;;;;4141106;28;20042;-72
2021/07/16 03:29:10;;;;;;;9.80;4.78;;;17.60;99.90;;;;;;4133130;28;20030;-72
2021/07/16 03:31:11;;;;;;;12.05;5.80;;;17.60;99.90;;;;;;4135251;28;20047;-72
2021/07/16 03:33:11;;;;;;;10.95;4.63;;;17.60;99.90;;;;;;4139494;28;20045;-72
2021/07/16 03:35:13;;;;;;;11.93;5.40;;;17.60;99.90;;;;;;4138464;28;20050;-72
2021/07/16 03:37:14;;;;;;;10.30;4.85;;;17.60;99.90;;;;;;4138285;28;20038;-72
2021/07/16 03:39:14;;;;;;;10.82;5.22;;;17.60;99.90;;;;;;4114291;28;20088;-72
2021/07/16 03:41:15;;;;;;;9.95;4.32;;;17.60;99.90;;;;;;4133957;28;20050;-72
2021/07/16 03:43:15;;;;;;;12.23;5.30;;;17.70;99.90;;;;;;4138473;28;20031;-72
2021/07/16 03:45:18;;;;;;;11.45;4.78;;;17.60;99.90;;;;;;4137586;28;20040;-72
2021/07/16 03:47:18;;;;;;;11.48;5.03;;;17.60;99.90;;;;;;4130754;28;20467;-72
2021/07/16 03:49:19;;;;;;;13.88;5.20;;;17.60;99.90;;;;;;4112878;28;20049;-72
2021/07/16 03:51:20;;;;;;;10.02;4.60;;;17.60;99.90;;;;;;4135429;28;20087;-72
2021/07/16 03:53:20;;;;;;;12.27;4.40;;;17.60;99.90;;;;;;4135436;28;20157;-72
2021/07/16 03:55:21;;;;;;;10.35;4.70;;;17.60;99.90;;;;;;4118816;28;20074;-72
2021/07/16 03:57:22;;;;;;;10.13;4.40;;;17.60;99.90;;;;;;4132104;28;20063;-72
2021/07/16 03:59:23;;;;;;;12.02;4.20;;;17.60;99.90;;;;;;4136730;28;20033;-72
2021/07/16 04:01:24;;;;;;;13.68;5.43;;;17.60;99.90;;;;;;4130655;28;20509;-72
2021/07/16 04:03:24;;;;;;;10.48;5.00;;;17.60;99.90;;;;;;4139416;28;20057;-72
2021/07/16 04:05:26;;;;;;;7.70;4.75;;;17.60;99.90;;;;;;4129652;28;20030;-72
2021/07/16 04:07:29;;;;;;;7.93;4.57;;;17.60;99.90;;;;;;4134033;28;20042;-72
2021/07/16 04:09:31;;;;;;;19.52;5.68;;;17.60;99.90;;;;;;4132119;28;20415;-72
2021/07/16 04:11:32;;;;;;;11.20;5.40;;;17.60;99.90;;;;;;4137300;28;20411;-72
2021/07/16 04:13:33;;;;;;;7.13;4.35;;;17.60;99.90;;;;;;4132131;28;20415;-72
2021/07/16 04:15:35;;;;;;;8.23;4.55;;;17.60;99.90;;;;;;4133592;28;20045;-72
2021/07/16 04:17:35;;;;;;;8.40;4.75;;;17.60;99.90;;;;;;4133627;28;20034;-72
2021/07/16 04:19:36;;;;;;;9.18;4.47;;;17.60;99.90;;;;;;4131703;28;20513;-72
2021/07/16 04:21:37;;;;;;;12.45;5.57;;;17.70;99.90;;;;;;4139033;28;20092;-72
2021/07/16 04:23:38;;;;;;;12.07;4.80;;;17.60;99.90;;;;;;4133171;28;20042;-72
2021/07/16 04:25:38;;;;;;;9.07;5.13;;;17.70;99.90;;;;;;4138969;28;20052;-72
2021/07/16 04:27:39;;;;;;;10.55;4.65;;;17.70;99.90;;;;;;4138811;28;20623;-72
2021/07/16 04:29:41;;;;;;;11.55;4.80;;;17.70;99.90;;;;;;4134913;28;20457;-72
2021/07/16 04:31:41;;;;;;;8.73;4.50;;;17.70;99.90;;;;;;4138960;28;20057;-72
2021/07/16 04:33:42;;;;;;;10.88;4.63;;;17.70;99.90;;;;;;4137111;28;20043;-72
2021/07/16 04:35:43;;;;;;;9.43;5.13;;;17.70;99.90;;;;;;4137073;28;20110;-72
2021/07/16 04:37:44;;;;;;;13.00;5.50;;;17.70;99.90;;;;;;4140357;28;20129;-72
2021/07/16 04:39:45;;;;;;;16.17;5.45;;;17.60;99.90;;;;;;4132912;28;20033;-72
2021/07/16 04:41:45;;;;;;;7.75;4.53;;;17.60;99.90;;;;;;4136062;28;20774;-72
2021/07/16 04:43:46;;;;;;;7.50;4.30;;;17.60;99.90;;;;;;4136311;28;20095;-72
2021/07/16 04:45:46;;;;;;;13.57;5.80;;;17.60;99.90;;;;;;4137528;28;20425;-72
2021/07/16 04:47:47;;;;;;;15.30;6.03;;;17.70;99.90;;;;;;4140839;28;20030;-72
2021/07/16 04:49:48;;;;;;;13.35;5.85;;;17.60;99.90;;;;;;4135492;28;20450;-72
2021/07/16 04:51:48;;;;;;;14.27;5.97;;;17.60;99.90;;;;;;4135012;28;20121;-72
2021/07/16 04:53:57;;;;;;;16.10;6.65;;;17.60;99.90;;;;;;4138141;28;20109;-72
2021/07/16 04:55:58;;;;;;;8.95;5.35;;;17.60;99.90;;;;;;4137367;28;20084;-72
2021/07/16 04:57:58;;;;;;;15.98;6.32;;;17.60;99.90;;;;;;4137260;28;20077;-72
2021/07/16 04:59:59;;;;;;;11.13;5.68;;;17.60;99.90;;;;;;4139242;28;20184;-73
2021/07/16 05:01:59;;;;;;;10.43;5.80;;;17.60;99.90;;;;;;4138637;28;20062;-72
2021/07/16 05:04:00;;;;;;;10.73;5.30;;;17.60;99.90;;;;;;4137834;28;20133;-72
2021/07/16 05:06:00;;;;;;;10.68;5.63;;;17.60;99.90;;;;;;4135640;28;20634;-72
2021/07/16 05:08:01;;;;;;;9.40;5.38;;;17.60;99.90;;;;;;4142976;28;20596;-72
2021/07/16 05:10:04;;;;;;;12.82;5.18;;;17.60;99.90;;;;;;4132117;28;20066;-72
2021/07/16 05:12:05;;;;;;;11.48;5.75;;;17.70;99.90;;;;;;4138284;28;20030;-72
2021/07/16 05:14:06;;;;;;;10.45;5.82;;;17.70;99.90;;;;;;4138740;28;20026;-72
2021/07/16 05:16:08;;;;;;;13.85;6.07;;;17.70;99.90;;;;;;4138674;28;20022;-72
2021/07/16 05:18:09;;;;;;;12.02;5.68;;;17.70;99.90;;;;;;4132168;28;20026;-72
2021/07/16 05:20:10;;;;;;;11.65;6.25;;;17.60;99.90;;;;;;4138119;28;20026;-72
2021/07/16 05:22:10;;;;;;;17.65;6.65;;;17.70;99.90;;;;;;4131506;28;20538;-72
2021/07/16 05:24:11;;;;;;;10.80;5.75;;;17.60;99.90;;;;;;4130913;28;20034;-72
2021/07/16 05:26:12;;;;;;;9.23;5.05;;;17.60;99.90;;;;;;4134545;28;20042;-72
2021/07/16 05:28:13;;;;;;;15.57;5.78;;;17.50;99.90;;;;;;4137009;28;20034;-72
2021/07/16 05:30:14;;;;;;;14.18;6.40;;;17.60;99.90;;;;;;4140590;28;20045;-72
2021/07/16 05:32:15;;;;;;;13.90;5.65;;;17.60;99.90;;;;;;4141356;28;20414;-72
2021/07/16 05:34:16;;;;;;;11.10;4.65;;;17.60;99.90;;;;;;4141710;28;20041;-72
2021/07/16 05:36:17;;;;;;;18.85;6.20;;;17.60;99.90;;;;;;4117490;28;20061;-72
2021/07/16 05:38:18;;;;;;;13.95;5.50;;;17.60;99.90;;;;;;4140884;28;20506;-72
2021/07/16 05:40:19;;;;;;;10.27;5.20;;;17.60;99.90;;;;;;4143917;28;20099;-72
2021/07/16 05:42:19;;;;;;;11.80;5.05;;;17.60;99.90;;;;;;4138155;28;20498;-72
2021/07/16 05:44:20;;;;;;;13.10;5.63;;;17.70;99.90;;;;;;4130545;28;20029;-72
2021/07/16 05:46:21;;;;;;;14.18;5.95;;;17.60;99.90;;;;;;4143677;28;20037;-72
2021/07/16 05:48:23;;;;;;;19.05;6.07;;;17.60;99.90;;;;;;4136641;28;20144;-72
2021/07/16 05:50:23;;;;;;;14.32;5.47;;;17.60;99.90;;;;;;4140586;28;20038;-72
2021/07/16 05:52:24;;;;;;;12.50;5.05;;;17.70;99.90;;;;;;4134298;28;20049;-72
2021/07/16 05:54:25;;;;;;;12.80;5.35;;;17.70;99.90;;;;;;4139487;28;20022;-72
2021/07/16 05:56:25;;;;;;;16.35;5.72;;;17.70;99.90;;;;;;4137596;28;20062;-72
2021/07/16 05:58:26;;;;;;;16.63;6.03;;;17.70;99.90;;;;;;4135775;28;20515;-72
2021/07/16 06:00:28;;;;;;;10.57;5.07;;;17.70;99.90;;;;;;4136440;28;20548;-73
2021/07/16 06:02:28;;;;;;;13.13;6.07;;;17.80;99.90;;;;;;4134346;28;20046;-72
2021/07/16 06:04:29;;;;;;;13.85;5.60;;;17.70;99.90;;;;;;4135063;28;20088;-74
2021/07/16 06:06:30;;;;;;;16.63;5.78;;;17.70;99.90;;;;;;4142360;28;20498;-74
2021/07/16 06:08:30;;;;;;;11.90;5.20;;;17.70;99.90;;;;;;4137085;28;20034;-74
2021/07/16 06:10:32;;;;;;;11.20;5.07;;;17.70;99.90;;;;;;4120863;28;20395;-74
2021/07/16 06:12:35;;;;;;;13.95;5.95;;;17.70;99.90;;;;;;4142044;28;20200;-74
2021/07/16 06:14:35;;;;;;;31.13;7.18;;;17.70;99.90;;;;;;4144620;28;20454;-75
2021/07/16 06:16:36;;;;;;;14.90;6.30;;;17.60;99.90;;;;;;4136215;28;20038;-74
2021/07/16 06:18:37;;;;;;;15.68;5.90;;;17.60;99.90;;;;;;4139574;28;20034;-74
2021/07/16 06:20:38;;;;;;;14.68;6.88;;;17.60;99.90;;;;;;4144092;28;20120;-74
2021/07/16 06:22:39;;;;;;;17.87;6.70;;;17.50;99.90;;;;;;4132992;28;20121;-74
2021/07/16 06:24:40;;;;;;;13.20;6.40;;;17.50;99.90;;;;;;4134222;28;20574;-74
2021/07/16 06:26:41;;;;;;;25.13;8.18;;;17.50;99.90;;;;;;4134302;28;20066;-74
2021/07/16 06:28:42;;;;;;;24.35;6.95;;;17.40;99.90;;;;;;4120478;28;20065;-74
2021/07/16 06:30:42;;;;;;;20.20;6.82;;;17.40;99.90;;;;;;4139114;28;20470;-74
2021/07/16 06:32:45;;;;;;;19.58;8.18;;;17.30;99.90;;;;;;4135126;28;20061;-74
2021/07/16 06:34:46;;;;;;;22.58;7.10;;;17.40;99.90;;;;;;4138323;28;20037;-74
2021/07/16 06:36:47;;;;;;;21.77;7.32;;;17.40;99.90;;;;;;4133583;28;20042;-74
2021/07/16 06:38:47;;;;;;;18.27;6.93;;;17.30;99.90;;;;;;4139268;28;20041;-74
2021/07/16 06:40:48;;;;;;;21.00;7.10;;;17.30;99.90;;;;;;4140716;28;20046;-74
2021/07/16 06:42:50;;;;;;;36.13;8.63;;;17.30;99.90;;;;;;4140215;28;20048;-75
2021/07/16 06:44:50;;;;;;;16.50;6.70;;;17.30;99.90;;;;;;4138722;28;20042;-74
2021/07/16 06:46:51;;;;;;;21.52;7.97;;;17.30;99.90;;;;;;4134648;28;20038;-74
2021/07/16 06:48:52;;;;;;;18.15;6.68;;;17.30;99.90;;;;;;4137357;28;20038;-75
2021/07/16 06:50:52;;;;;;;17.58;6.38;;;17.30;99.90;;;;;;4140128;28;20150;-74
2021/07/16 06:52:53;;;;;;;17.50;6.70;;;17.30;99.90;;;;;;4141318;28;20482;-75
2021/07/16 06:54:55;;;;;;;14.05;6.03;;;17.30;99.90;;;;;;4137060;28;20847;-74
2021/07/16 06:56:55;;;;;;;25.33;6.07;;;17.30;99.90;;;;;;4136612;28;20042;-74
2021/07/16 06:58:56;;;;;;;12.00;5.00;;;17.40;99.90;;;;;;4136554;28;20409;-74
2021/07/16 07:00:57;;;;;;;17.08;5.53;;;17.40;99.90;;;;;;4138342;28;20033;-73
2021/07/16 07:02:57;;;;;;;21.88;5.55;;;17.40;99.90;;;;;;4135427;28;20053;-74
2021/07/16 07:04:58;;;;;;;18.70;5.63;;;17.50;99.90;;;;;;4140401;28;20112;-75
2021/07/16 07:06:59;;;;;;;20.98;5.65;;;17.50;99.90;;;;;;4136008;28;20057;-74
2021/07/16 07:09:00;;;;;;;16.08;5.90;;;17.60;99.90;;;;;;4135250;28;20042;-74
2021/07/16 07:11:01;;;;;;;19.13;5.30;;;17.60;99.90;;;;;;4140243;28;20116;-74
2021/07/16 07:13:05;;;;;;;24.17;5.67;;;17.60;99.90;;;;;;4139353;28;20065;-74
2021/07/16 07:15:06;;;;;;;13.40;4.60;;;17.60;99.90;;;;;;4139232;28;20567;-74
2021/07/16 07:17:07;;;;;;;12.13;4.82;;;17.60;99.90;;;;;;4131452;28;20034;-74
2021/07/16 07:19:08;;;;;;;15.82;4.95;;;17.60;99.90;;;;;;4138223;28;20038;-74
2021/07/16 07:21:09;;;;;;;16.08;5.00;;;17.70;99.90;;;;;;4136728;28;20141;-74
2021/07/16 07:23:10;;;;;;;17.48;5.32;;;17.80;99.90;;;;;;4138935;28;20474;-74
2021/07/16 07:25:11;;;;;;;16.55;5.03;;;17.80;99.90;;;;;;4137426;28;20050;-74
2021/07/16 07:27:11;;;;;;;19.80;5.22;;;17.80;99.90;;;;;;4134764;28;20568;-74
2021/07/16 07:29:12;;;;;;;13.90;4.43;;;17.80;99.90;;;;;;4135447;28;20389;-74
2021/07/16 07:31:13;;;;;;;10.85;4.03;;;17.90;99.90;;;;;;4118573;28;20522;-74
2021/07/16 07:33:14;;;;;;;14.38;4.70;;;17.90;99.90;;;;;;4132619;28;20072;-74
2021/07/16 07:35:15;;;;;;;18.27;5.15;;;17.90;99.90;;;;;;4134519;28;20034;-74
2021/07/16 07:37:16;;;;;;;14.80;5.10;;;17.90;99.90;;;;;;4136768;28;20672;-73
2021/07/16 07:39:16;;;;;;;22.67;5.43;;;17.90;99.90;;;;;;4135806;28;20030;-74
2021/07/16 07:41:17;;;;;;;16.20;4.85;;;17.80;99.90;;;;;;4136352;28;20049;-74
2021/07/16 07:43:18;;;;;;;16.27;4.78;;;17.80;99.90;;;;;;4133802;28;20074;-74
2021/07/16 07:45:19;;;;;;;12.70;4.47;;;17.80;99.90;;;;;;4139337;28;20030;-74
2021/07/16 07:47:21;;;;;;;16.27;4.95;;;17.90;99.90;;;;;;4134183;28;20041;-74
2021/07/16 07:49:21;;;;;;;10.87;3.80;;;17.90;99.90;;;;;;4135749;28;20045;-74
2021/07/16 07:51:22;;;;;;;18.00;4.85;;;17.90;99.90;;;;;;4138402;28;20049;-74
2021/07/16 07:53:23;;;;;;;22.30;5.45;;;17.90;99.90;;;;;;4135351;28;20553;-74
2021/07/16 07:55:24;;;;;;;16.05;4.90;;;17.90;99.90;;;;;;4135145;28;20402;-74
2021/07/16 07:57:25;;;;;;;12.98;4.35;;;17.90;99.90;;;;;;4141504;28;20025;-74
2021/07/16 07:59:25;;;;;;;18.52;5.35;;;18.00;99.90;;;;;;4136221;28;20112;-74
2021/07/16 08:01:26;;;;;;;20.92;5.75;;;17.90;99.90;;;;;;4135111;28;20104;-74
2021/07/16 08:03:27;;;;;;;15.70;4.53;;;18.00;99.90;;;;;;4132883;28;20455;-74
2021/07/16 08:05:27;;;;;;;13.25;4.35;;;18.00;99.90;;;;;;4141163;28;20034;-74
2021/07/16 08:07:28;;;;;;;14.35;4.00;;;18.10;99.90;;;;;;4138512;28;20045;-74
2021/07/16 08:09:29;;;;;;;15.20;4.35;;;18.20;99.90;;;;;;4139509;28;20494;-73
2021/07/16 08:11:30;;;;;;;13.57;4.07;;;18.20;99.90;;;;;;4138169;28;20049;-74
2021/07/16 08:13:31;;;;;;;17.40;4.20;;;18.20;99.90;;;;;;4139011;28;21188;-74
2021/07/16 08:15:31;;;;;;;31.50;5.55;;;18.20;99.90;;;;;;4132826;28;20046;-74
2021/07/16 08:17:32;;;;;;;13.57;4.35;;;18.30;99.90;;;;;;4135431;28;20038;-74
2021/07/16 08:19:34;;;;;;;16.80;4.18;;;18.30;99.90;;;;;;4137402;28;20036;-75
2021/07/16 08:21:35;;;;;;;24.52;5.18;;;18.30;99.90;;;;;;4136424;28;20056;-74
2021/07/16 08:23:36;;;;;;;17.45;4.63;;;18.30;99.90;;;;;;4136717;28;20752;-74
2021/07/16 08:25:36;;;;;;;14.32;4.95;;;18.30;99.90;;;;;;4135102;28;20120;-74
2021/07/16 08:27:38;;;;;;;16.73;4.43;;;18.30;99.90;;;;;;4136946;28;20121;-74
2021/07/16 08:29:38;;;;;;;18.58;5.00;;;18.30;99.90;;;;;;4137260;28;20041;-74
2021/07/16 08:31:40;;;;;;;18.98;4.40;;;18.30;99.90;;;;;;4137636;28;20486;-74
2021/07/16 08:33:41;;;;;;;20.83;4.72;;;18.20;99.90;;;;;;4135901;28;20053;-73
2021/07/16 08:35:41;;;;;;;18.23;4.75;;;18.20;99.90;;;;;;4131486;28;20030;-74
2021/07/16 08:37:42;;;;;;;10.07;3.85;;;18.20;99.90;;;;;;4120824;28;20031;-74
2021/07/16 08:39:42;;;;;;;20.35;5.13;;;18.30;99.90;;;;;;4136843;28;20038;-74
2021/07/16 08:41:43;;;;;;;20.80;4.38;;;18.30;99.90;;;;;;4132131;28;20026;-74
2021/07/16 08:43:44;;;;;;;15.32;4.40;;;18.20;99.90;;;;;;4136260;28;20034;-74
2021/07/16 08:45:46;;;;;;;17.83;4.53;;;18.20;99.90;;;;;;4134928;28;20038;-74
2021/07/16 08:47:49;;;;;;;16.98;4.43;;;18.30;99.90;;;;;;4138078;28;20499;-74
2021/07/16 08:49:49;;;;;;;17.25;4.50;;;18.30;99.90;;;;;;4132489;28;20035;-74
2021/07/16 08:51:51;;;;;;;19.33;5.13;;;18.40;99.90;;;;;;4129065;28;20650;-74
2021/07/16 08:53:55;;;;;;;11.70;3.95;;;18.40;99.90;;;;;;4129115;28;20069;-74
2021/07/16 08:55:55;;;;;;;22.63;5.35;;;18.40;99.90;;;;;;4133882;28;20048;-74
2021/07/16 08:57:56;;;;;;;21.65;5.15;;;18.40;99.90;;;;;;4118697;28;20035;-74
2021/07/16 08:59:57;;;;;;;17.13;4.78;;;18.40;99.90;;;;;;4137220;28;20042;-74
2021/07/16 09:02:01;;;;;;;21.83;5.05;;;18.30;99.90;;;;;;4136911;28;20049;-74
2021/07/16 09:04:06;;;;;;;19.50;4.68;;;18.30;99.90;;;;;;4135639;28;20569;-74
2021/07/16 09:06:07;;;;;;;20.88;4.45;;;18.30;99.90;;;;;;4133719;28;20042;-74
2021/07/16 09:08:13;;;;;;;13.25;4.30;;;18.30;99.90;;;;;;4131612;28;20946;-74
2021/07/16 09:10:18;;;;;;;15.30;4.63;;;18.40;99.90;;;;;;4134986;28;20461;-74
2021/07/16 09:12:19;;;;;;;24.67;4.50;;;18.40;99.90;;;;;;4133643;28;20565;-74
2021/07/16 09:14:22;;;;;;;20.08;5.05;;;18.40;99.90;;;;;;4137973;28;20069;-74
2021/07/16 09:16:24;;;;;;;13.13;4.55;;;18.40;99.90;;;;;;4115765;28;20043;-74
2021/07/16 09:18:27;;;;;;;25.38;5.20;;;18.40;99.90;;;;;;4133206;28;20497;-74
2021/07/16 09:20:28;;;;;;;19.75;4.63;;;18.30;99.90;;;;;;4136680;28;20053;-73
2021/07/16 09:22:34;;;;;;;19.08;4.32;;;18.40;99.90;;;;;;4135662;28;20041;-74
2021/07/16 09:24:36;;;;;;;13.20;4.18;;;18.40;99.90;;;;;;4129956;28;20046;-74
2021/07/16 09:26:39;;;;;;;17.80;4.97;;;18.40;99.90;;;;;;4149229;28;20719;-74
2021/07/16 09:28:45;;;;;;;16.45;4.38;;;18.40;99.90;;;;;;4137187;28;20038;-73
2021/07/16 09:30:46;;;;;;;14.77;4.82;;;18.40;99.90;;;;;;4135640;28;20022;-74
2021/07/16 09:32:50;;;;;;;19.38;5.47;;;18.40;99.90;;;;;;4133143;28;20035;-74
2021/07/16 09:34:51;;;;;;;16.40;4.15;;;18.40;99.90;;;;;;4138330;28;20034;-74
2021/07/16 09:36:53;;;;;;;21.77;5.15;;;18.40;99.90;;;;;;4137105;28;20094;-74
2021/07/16 09:38:56;;;;;;;12.05;3.75;;;18.40;99.90;;;;;;4135515;28;20540;-74
2021/07/16 09:41:05;;;;;;;11.80;3.88;;;18.40;99.90;;;;;;4138780;28;20126;-74
2021/07/16 09:43:12;;;;;;;13.98;3.78;;;18.50;99.90;;;;;;4138084;28;20063;-73
2021/07/16 09:45:13;;;;;;;18.85;5.22;;;18.50;99.90;;;;;;4137399;28;20038;-73
2021/07/16 09:47:16;;;;;;;16.77;4.82;;;18.40;99.90;;;;;;4136353;28;20049;-74
2021/07/16 09:49:17;;;;;;;17.98;4.38;;;18.30;99.90;;;;;;4133825;28;20030;-74
2021/07/16 09:51:25;;;;;;;13.45;3.67;;;18.20;99.90;;;;;;4134016;28;20561;-74
2021/07/16 09:53:30;;;;;;;14.40;3.72;;;18.20;99.90;;;;;;4133727;28;20410;-74
2021/07/16 09:55:31;;;;;;;17.73;4.00;;;18.30;99.90;;;;;;4138031;28;20033;-74
2021/07/16 09:57:45;;;;;;;18.85;5.18;;;18.30;99.90;;;;;;4138978;28;20096;-74
2021/07/16 09:59:45;;;;;;;22.35;4.82;;;18.40;99.90;;;;;;4139648;28;20022;-74
2021/07/16 10:01:50;;;;;;;20.90;4.80;;;18.30;99.90;;;;;;4138612;28;20108;-74
2021/07/16 10:03:53;;;;;;;24.88;4.63;;;18.40;99.90;;;;;;4136479;28;20254;-74
2021/07/16 10:05:55;;;;;;;24.88;4.85;;;18.40;99.90;;;;;;4137266;28;20041;-74
2021/07/16 10:07:56;;;;;;;26.02;5.35;;;18.40;99.90;;;;;;4137280;28;20684;-74
2021/07/16 10:09:56;;;;;;;20.95;5.25;;;18.30;99.90;;;;;;4132612;28;20064;-75
2021/07/16 10:11:59;;;;;;;19.58;5.25;;;18.40;99.90;;;;;;4138293;28;20048;-74
2021/07/16 10:14:00;;;;;;;14.38;4.60;;;18.30;99.90;;;;;;4112381;28;20030;-74
2021/07/16 10:16:02;;;;;;;26.15;5.53;;;18.40;99.90;;;;;;4133399;28;20038;-73
2021/07/16 10:18:06;;;;;;;14.13;4.20;;;18.40;99.90;;;;;;4136702;28;20054;-74
2021/07/16 10:20:12;;;;;;;20.90;5.30;;;18.50;99.90;;;;;;4133930;28;20049;-74
2021/07/16 10:22:13;;;;;;;23.20;4.15;;;18.50;99.90;;;;;;4139003;28;20057;-74
2021/07/16 10:24:19;;;;;;;15.30;4.03;;;18.60;99.90;;;;;;4138461;28;20042;-74